createdAt,value
2022-09-04T00:04:36.748Z,-20.52321
2022-09-04T00:09:37.744Z,-20.9263
2022-09-04T00:14:38.719Z,-21.07785
2022-09-04T00:19:39.862Z,-20.36392
2022-09-04T00:24:40.776Z,-20.62911
2022-09-04T00:29:41.688Z,-20.52336
2022-09-04T00:34:42.637Z,-20.03252
2022-09-04T00:39:43.660Z,-20.38402
2022-09-04T00:44:44.613Z,-20.61784
2022-09-04T00:49:45.615Z,-21.12238
2022-09-04T00:54:46.554Z,-21.90319
2022-09-04T00:59:47.562Z,-22.52048
2022-09-04T01:04:48.500Z,-22.50087
2022-09-04T01:09:49.564Z,-22.40975
2022-09-04T01:14:52.064Z,-22.56647
2022-09-04T01:19:54.254Z,-23.20426
2022-09-04T01:25:00.475Z,-23.7036
2022-09-04T01:40:42.386Z,-23.68143
2022-09-04T01:45:43.627Z,-23.70172
2022-09-04T01:50:44.664Z,-23.98239
2022-09-04T01:55:45.836Z,-23.73714
2022-09-04T02:11:39.237Z,-23.67328
2022-09-04T02:16:40.402Z,-23.5775
2022-09-04T02:31:53.411Z,-23.60909
2022-09-04T02:42:14.898Z,-23.13777
2022-09-04T02:47:15.924Z,-23.78687
2022-09-04T02:52:16.901Z,-24.09526
2022-09-04T02:57:17.822Z,-24.44513
2022-09-04T03:02:18.778Z,-24.73418
2022-09-04T03:07:19.793Z,-24.48927
2022-09-04T03:12:20.862Z,-24.58543
2022-09-04T03:17:21.837Z,-24.53654
2022-09-04T03:22:22.744Z,-24.45327
2022-09-04T03:32:44.176Z,-24.76748
2022-09-04T03:37:45.421Z,-24.78361
2022-09-04T03:42:46.350Z,-24.8816
2022-09-04T03:47:47.320Z,-24.96538
2022-09-04T03:52:48.256Z,-25.34057
2022-09-04T04:03:21.216Z,-26.05547
2022-09-04T04:08:23.215Z,-26.70382
2022-09-04T04:13:24.181Z,-27.30119
2022-09-04T04:18:25.325Z,-27.79688
2022-09-04T04:23:26.878Z,-27.41157
2022-09-04T04:28:28.125Z,-27.41215
2022-09-04T04:38:29.601Z,-27.6087
2022-09-04T04:43:30.632Z,-27.77837
2022-09-04T04:53:52.030Z,-29.78137
2022-09-04T04:58:54.133Z,-29.95534
2022-09-04T05:03:55.042Z,-30.86069
2022-09-04T05:08:55.933Z,-31.10211
2022-09-04T05:13:57.006Z,-31.14725
2022-09-04T05:24:08.476Z,-33.08966
2022-09-04T05:29:09.440Z,-33.90041
2022-09-04T05:34:10.353Z,-34.51732
2022-09-04T05:44:11.741Z,-35.87857
2022-09-04T06:20:31.209Z,-38.37205
2022-09-04T06:25:32.642Z,-38.82945
2022-09-04T06:30:33.914Z,-39.28603
2022-09-04T06:41:15.457Z,-38.98651
2022-09-04T06:56:20.556Z,-39.44723
2022-09-04T07:03:19.655Z,-39.53694
2022-09-04T07:08:20.785Z,-40.14209
2022-09-04T07:18:22.362Z,-40.44352
2022-09-04T07:54:49.765Z,-40.94735
2022-09-04T08:04:51.273Z,-42.06691
2022-09-04T08:09:52.353Z,-42.86988
2022-09-04T08:19:53.843Z,-43.83069
2022-09-04T08:24:54.764Z,-43.57826
2022-09-04T08:35:16.658Z,-43.48882
2022-09-04T08:40:17.647Z,-43.7423
2022-09-04T08:50:59.146Z,-43.94098
2022-09-04T08:56:00.349Z,-43.32282
2022-09-04T09:01:01.475Z,-43.17648
2022-09-04T09:06:02.450Z,-43.45015
2022-09-04T09:11:03.432Z,-43.11311
2022-09-04T09:16:04.450Z,-43.19212
2022-09-04T09:31:28.259Z,-42.27081
2022-09-04T09:36:29.189Z,-42.03877
2022-09-04T09:41:30.175Z,-41.94746
2022-09-04T09:46:31.192Z,-42.15602
2022-09-04T09:51:32.080Z,-41.62242
2022-09-04T09:56:33.001Z,-41.95882
2022-09-04T10:01:34.225Z,-41.17756
2022-09-04T10:06:35.718Z,-40.61652
2022-09-04T10:11:36.645Z,-41.1951
2022-09-04T10:16:37.717Z,-40.49824
2022-09-04T10:21:38.761Z,-41.16663
2022-09-04T10:26:39.710Z,-40.68539
2022-09-04T10:31:40.750Z,-41.37101
2022-09-04T10:36:41.725Z,-41.32834
2022-09-04T10:41:42.648Z,-42.06851
2022-09-04T10:46:43.703Z,-42.08686
2022-09-04T10:51:44.607Z,-41.69544
2022-09-04T10:56:45.613Z,-41.58678
2022-09-04T11:01:46.533Z,-41.44682
2022-09-04T11:06:47.529Z,-42.07702
2022-09-04T11:11:48.501Z,-42.37111
2022-09-04T11:16:50.588Z,-42.55131
2022-09-04T11:21:51.799Z,-42.4298
2022-09-04T11:26:52.731Z,-42.00235
2022-09-04T11:31:53.732Z,-41.19646
2022-09-04T11:36:54.789Z,-41.6562
2022-09-04T11:41:55.777Z,-40.29066
2022-09-04T11:46:56.785Z,-39.91071
2022-09-04T11:51:57.707Z,-40.34828
2022-09-04T11:56:58.588Z,-39.07502
2022-09-04T12:01:59.582Z,-39.7171
2022-09-04T12:07:02.327Z,-39.59085
2022-09-04T12:12:03.593Z,-39.08533
2022-09-04T12:17:04.510Z,-39.20191
2022-09-04T12:22:05.459Z,-39.00943
2022-09-04T12:27:06.394Z,-38.32239
2022-09-04T12:32:07.417Z,-38.05886
2022-09-04T12:37:08.502Z,-38.62853
2022-09-04T12:42:09.489Z,-38.62214
2022-09-04T12:47:10.490Z,-38.78345
2022-09-04T12:52:11.678Z,-38.65971
2022-09-04T12:57:12.708Z,-38.2411
2022-09-04T13:02:13.925Z,-38.83389
2022-09-04T13:07:15.957Z,-38.48191
2022-09-04T13:12:17.310Z,-38.50293
2022-09-04T13:17:18.235Z,-38.44792
2022-09-04T13:22:19.188Z,-38.35016
2022-09-04T13:27:20.314Z,-38.25786
2022-09-04T13:32:21.478Z,-38.66762
2022-09-04T13:37:22.441Z,-38.40505
2022-09-04T13:42:23.375Z,-38.69572
2022-09-04T13:47:32.052Z,-39.54871
2022-09-04T13:52:34.002Z,-39.66492
2022-09-04T13:57:35.494Z,-39.94474
2022-09-04T14:02:36.639Z,-39.80428
2022-09-04T14:07:38.858Z,-39.53358
2022-09-04T14:12:42.589Z,-39.59489
2022-09-04T14:17:47.544Z,-39.26184
2022-09-04T14:22:48.444Z,-39.38494
2022-09-04T14:27:53.122Z,-39.70065
2022-09-04T14:32:57.662Z,-39.36896
2022-09-04T14:37:58.904Z,-39.34241
2022-09-04T14:42:59.837Z,-40.21059
2022-09-04T14:48:00.815Z,-40.43337
2022-09-04T14:53:01.819Z,-40.4224
2022-09-04T14:58:02.929Z,-40.4438
2022-09-04T15:03:03.957Z,-40.63716
2022-09-04T15:08:05.013Z,-40.27156
2022-09-04T15:13:05.925Z,-40.22783
2022-09-04T15:18:10.375Z,-40.53364
2022-09-04T15:23:11.668Z,-40.62744
2022-09-04T15:28:12.762Z,-41.11217
2022-09-04T15:33:13.726Z,-40.9869
2022-09-04T15:38:14.651Z,-40.30146
2022-09-04T15:43:15.643Z,-40.29578
2022-09-04T15:48:16.631Z,-40.79319
2022-09-04T15:53:17.554Z,-41.21217
2022-09-04T15:58:18.523Z,-41.53657
2022-09-04T16:03:19.504Z,-41.6552
2022-09-04T16:08:20.586Z,-41.91449
2022-09-04T16:13:21.567Z,-42.21734
2022-09-04T16:18:22.550Z,-42.36586
2022-09-04T16:23:23.532Z,-42.60469
2022-09-04T16:28:25.846Z,-42.76697
2022-09-04T16:33:27.973Z,-43.39025
2022-09-04T16:38:29.656Z,-43.35499
2022-09-04T16:43:31.468Z,-43.69375
2022-09-04T16:48:33.704Z,-44.62552
2022-09-04T16:53:36.222Z,-44.84405
2022-09-04T16:58:37.186Z,-44.6864
2022-09-04T17:03:38.208Z,-45.39946
2022-09-04T17:08:39.164Z,-45.98952
2022-09-04T17:13:40.105Z,-46.75008
2022-09-04T17:18:45.087Z,-47.10355
2022-09-04T17:28:56.327Z,-47.00563
2022-09-04T17:40:39.970Z,-47.44998
2022-09-04T17:46:01.716Z,-48.42994
2022-09-04T17:51:02.660Z,-49.29345
2022-09-04T17:56:06.692Z,-49.77514
2022-09-04T18:01:15.450Z,-50.44672
2022-09-04T18:06:17.009Z,-51.18114
2022-09-04T18:11:18.024Z,-51.51301
2022-09-04T18:16:19.034Z,-51.73451
2022-09-04T18:21:20.004Z,-52.09779
2022-09-04T18:26:21.009Z,-52.92094
2022-09-04T18:37:11.076Z,-53.08424
2022-09-04T18:47:17.407Z,-54.20991
2022-09-04T18:55:43.358Z,-54.63411
2022-09-04T19:00:44.279Z,-55.62446
2022-09-04T19:05:45.505Z,-56.18989
2022-09-04T19:10:46.563Z,-56.30024
2022-09-04T19:15:47.528Z,-56.4983
2022-09-04T19:20:48.517Z,-56.3523
2022-09-04T19:25:54.727Z,-56.27956
2022-09-04T19:30:56.125Z,-56.48208
2022-09-04T19:35:57.155Z,-56.66645
2022-09-04T19:46:02.226Z,-57.00368
2022-09-04T19:53:23.934Z,-56.93101
2022-09-04T19:58:44.082Z,-56.90185
2022-09-04T20:03:45.516Z,-57.13753
2022-09-04T20:08:46.534Z,-57.27708
2022-09-04T20:13:52.445Z,-57.2706
2022-09-04T20:18:53.443Z,-57.3222
2022-09-04T20:23:54.409Z,-57.83482
2022-09-04T20:33:55.986Z,-58.16743
2022-09-04T20:38:57.297Z,-57.98551
2022-09-04T20:43:58.276Z,-58.63569
2022-09-04T20:52:59.851Z,-58.92502
2022-09-04T21:03:05.809Z,-59.37564
2022-09-04T21:08:17.601Z,-59.87729
2022-09-04T21:13:18.537Z,-60.4071
2022-09-04T21:18:19.503Z,-61.00644
2022-09-04T21:23:20.587Z,-61.64848
2022-09-04T21:28:21.575Z,-61.87578
2022-09-04T21:33:27.921Z,-62.21548
2022-09-04T21:38:30.535Z,-62.79079
2022-09-04T21:43:35.827Z,-62.5462
2022-09-04T21:48:37.377Z,-62.53746
2022-09-04T21:53:38.363Z,-63.03794
2022-09-04T22:02:29.075Z,-63.05308
2022-09-04T22:11:50.287Z,-63.08194
2022-09-04T22:18:48.394Z,-63.66122
2022-09-04T22:23:49.355Z,-63.68543
2022-09-04T22:28:50.294Z,-63.93152
2022-09-04T22:34:15.476Z,-64.31268
2022-09-04T22:39:18.176Z,-64.55598
2022-09-04T22:44:19.121Z,-64.50002
2022-09-04T22:49:20.067Z,-64.46782
2022-09-04T22:54:21.016Z,-64.78324
2022-09-04T22:59:26.941Z,-65.13307
2022-09-04T23:04:28.479Z,-65.15931
2022-09-04T23:13:50.372Z,-65.28361
2022-09-04T23:22:50.677Z,-64.70189
2022-09-04T23:31:41.894Z,-65.50356
2022-09-04T23:36:43.305Z,-65.43003
2022-09-04T23:41:52.603Z,-65.38718
2022-09-04T23:46:54.414Z,-65.5213
2022-09-04T23:51:55.299Z,-65.74739
2022-09-04T23:56:56.233Z,-65.35726
